createdAt,value
2019-05-12T00:01:04.090Z,6.70
2019-05-12T00:02:08.858Z,6.70
2019-05-12T00:03:14.067Z,6.80
2019-05-12T00:04:19.041Z,6.70
2019-05-12T00:05:24.196Z,6.80
2019-05-12T00:06:29.014Z,6.80
2019-05-12T00:07:34.206Z,6.90
2019-05-12T00:08:39.118Z,6.90
2019-05-12T00:09:44.249Z,6.90
2019-05-12T00:10:49.031Z,6.90
2019-05-12T00:11:54.208Z,6.90
2019-05-12T00:12:59.005Z,6.90
2019-05-12T00:14:04.187Z,6.90
2019-05-12T00:15:09.268Z,6.80
2019-05-12T00:16:14.401Z,6.80
2019-05-12T00:17:19.173Z,6.80
2019-05-12T00:18:24.319Z,6.80
2019-05-12T00:19:29.117Z,6.70
2019-05-12T00:20:34.358Z,6.70
2019-05-12T00:21:39.919Z,6.70
2019-05-12T00:22:48.806Z,6.70
2019-05-12T00:24:12.534Z,6.60
2019-05-12T00:25:18.233Z,6.60
2019-05-12T00:26:23.237Z,6.50
2019-05-12T00:27:28.644Z,6.50
2019-05-12T00:28:33.436Z,6.50
2019-05-12T00:29:38.731Z,6.40
2019-05-12T00:30:48.753Z,6.40
2019-05-12T00:31:53.954Z,6.40
2019-05-12T00:32:58.743Z,6.40
2019-05-12T00:34:03.890Z,6.40
2019-05-12T00:35:08.701Z,6.30
2019-05-12T00:36:13.862Z,6.30
2019-05-12T00:37:18.734Z,6.30
2019-05-12T00:38:24.060Z,6.20
2019-05-12T00:39:28.948Z,6.10
2019-05-12T00:40:34.292Z,6.10
2019-05-12T00:41:39.203Z,6.10
2019-05-12T00:42:44.414Z,6.00
2019-05-12T00:43:49.196Z,6.00
2019-05-12T00:44:54.348Z,5.90
2019-05-12T00:45:59.068Z,5.90
2019-05-12T00:47:04.342Z,5.90
2019-05-12T00:48:09.733Z,5.80
2019-05-12T00:49:15.004Z,5.80
2019-05-12T00:50:19.899Z,5.80
2019-05-12T00:51:25.060Z,5.70
2019-05-12T00:52:31.028Z,5.70
2019-05-12T00:53:40.879Z,5.70
2019-05-12T00:54:42.620Z,5.70
2019-05-12T00:55:47.778Z,5.70
2019-05-12T00:56:52.527Z,5.60
2019-05-12T00:57:58.312Z,5.60
2019-05-12T00:59:03.137Z,5.50
2019-05-12T01:00:08.888Z,5.50
2019-05-12T01:01:13.867Z,5.50
2019-05-12T01:02:19.032Z,5.50
2019-05-12T01:03:23.778Z,5.50
2019-05-12T01:04:29.285Z,5.50
2019-05-12T01:05:34.337Z,5.50
2019-05-12T01:06:39.454Z,5.50
2019-05-12T01:07:44.244Z,5.50
2019-05-12T01:08:49.387Z,5.60
2019-05-12T01:09:54.167Z,5.60
2019-05-12T01:10:59.440Z,5.60
2019-05-12T01:12:04.179Z,5.60
2019-05-12T01:13:09.342Z,5.60
2019-05-12T01:14:14.224Z,5.60
2019-05-12T01:15:19.616Z,5.60
2019-05-12T01:16:24.408Z,5.70
2019-05-12T01:17:29.569Z,5.70
2019-05-12T01:18:34.572Z,5.70
2019-05-12T01:19:40.515Z,5.70
2019-05-12T01:20:47.770Z,5.70
2019-05-12T01:21:52.161Z,5.70
2019-05-12T01:22:57.911Z,5.70
2019-05-12T01:24:03.651Z,5.80
2019-05-12T01:25:08.941Z,5.90
2019-05-12T01:26:14.185Z,5.90
2019-05-12T01:27:18.961Z,6.00
2019-05-12T01:28:24.135Z,6.10
2019-05-12T01:29:29.072Z,6.10
2019-05-12T01:30:34.288Z,6.10
2019-05-12T01:31:48.481Z,6.20
2019-05-12T01:32:52.844Z,6.20
2019-05-12T01:33:58.621Z,6.10
2019-05-12T01:35:04.304Z,6.10
2019-05-12T01:36:09.165Z,6.00
2019-05-12T01:37:23.443Z,6.00
2019-05-12T01:38:28.726Z,5.90
2019-05-12T01:39:34.110Z,5.80
2019-05-12T01:40:39.751Z,5.80
2019-05-12T01:41:45.112Z,5.80
2019-05-12T01:42:49.892Z,5.70
2019-05-12T01:43:55.043Z,5.70
2019-05-12T01:44:59.981Z,5.60
2019-05-12T01:46:05.132Z,5.60
2019-05-12T01:47:09.969Z,5.60
2019-05-12T01:48:15.333Z,5.50
2019-05-12T01:49:20.333Z,5.50
2019-05-12T01:50:25.524Z,5.50
2019-05-12T01:51:30.312Z,5.60
2019-05-12T01:52:35.474Z,5.60
2019-05-12T01:53:40.232Z,5.60
2019-05-12T01:54:45.397Z,5.60
2019-05-12T01:55:50.292Z,5.80
2019-05-12T01:56:55.558Z,5.80
2019-05-12T01:58:00.365Z,5.80
2019-05-12T01:59:07.937Z,5.80
2019-05-12T02:00:13.468Z,5.90
2019-05-12T02:01:18.647Z,6.00
2019-05-12T02:02:23.414Z,6.10
2019-05-12T02:03:28.609Z,6.10
2019-05-12T02:04:49.163Z,6.10
2019-05-12T02:05:54.909Z,6.10
2019-05-12T02:07:01.928Z,6.00
2019-05-12T02:08:10.868Z,5.90
2019-05-12T02:09:18.687Z,6.00
2019-05-12T02:10:24.056Z,6.00
2019-05-12T02:11:35.280Z,6.00
2019-05-12T02:12:40.039Z,6.00
2019-05-12T02:13:45.155Z,6.00
2019-05-12T02:14:50.096Z,6.00
2019-05-12T02:15:55.292Z,5.90
2019-05-12T02:17:01.106Z,5.90
2019-05-12T02:18:06.275Z,5.90
2019-05-12T02:19:12.668Z,5.80
2019-05-12T02:20:18.465Z,5.80
2019-05-12T02:21:23.320Z,5.80
2019-05-12T02:22:28.536Z,5.80
2019-05-12T02:23:33.307Z,5.70
2019-05-12T02:24:39.059Z,5.70
2019-05-12T02:25:44.028Z,5.70
2019-05-12T02:26:49.134Z,5.70
2019-05-12T02:27:53.936Z,5.70
2019-05-12T02:28:59.096Z,5.70
2019-05-12T02:30:04.156Z,5.70
2019-05-12T02:31:09.757Z,5.70
2019-05-12T02:32:14.693Z,5.70
2019-05-12T02:33:19.989Z,5.70
2019-05-12T02:34:25.538Z,5.80
2019-05-12T02:35:31.045Z,5.80
2019-05-12T02:36:35.896Z,5.90
2019-05-12T02:37:44.856Z,5.90
2019-05-12T02:38:47.488Z,5.90
2019-05-12T02:39:55.470Z,5.90
2019-05-12T02:40:59.144Z,5.90
2019-05-12T02:42:05.128Z,5.90
2019-05-12T02:43:10.136Z,5.80
2019-05-12T02:44:15.364Z,5.80
2019-05-12T02:45:20.353Z,5.80
2019-05-12T02:46:25.853Z,5.80
2019-05-12T02:47:30.778Z,5.80
2019-05-12T02:48:35.936Z,5.80
2019-05-12T02:49:40.669Z,5.80
2019-05-12T02:50:46.077Z,5.80
2019-05-12T02:51:50.920Z,5.90
2019-05-12T02:52:57.553Z,5.90
2019-05-12T02:54:05.167Z,6.10
2019-05-12T02:55:10.273Z,6.20
2019-05-12T02:56:16.457Z,6.20
2019-05-12T02:57:25.240Z,6.30
2019-05-12T02:58:30.567Z,6.40
2019-05-12T02:59:37.849Z,6.40
2019-05-12T03:00:45.526Z,6.40
2019-05-12T03:01:55.058Z,6.40
2019-05-12T03:03:01.385Z,6.30
2019-05-12T03:04:06.669Z,6.30
2019-05-12T03:05:14.615Z,6.30
2019-05-12T03:06:25.282Z,6.30
2019-05-12T03:07:34.405Z,6.30
2019-05-12T03:08:38.483Z,6.30
2019-05-12T03:09:44.688Z,6.30
2019-05-12T03:10:54.643Z,6.40
2019-05-12T03:12:00.929Z,6.30
2019-05-12T03:13:06.053Z,6.30
2019-05-12T03:14:10.861Z,6.30
2019-05-12T03:15:16.011Z,6.30
2019-05-12T03:16:20.789Z,6.30
2019-05-12T03:17:25.917Z,6.40
2019-05-12T03:18:30.661Z,6.40
2019-05-12T03:19:35.839Z,6.60
2019-05-12T03:20:40.600Z,6.50
2019-05-12T03:21:45.776Z,6.50
2019-05-12T03:22:50.506Z,6.50
2019-05-12T03:23:55.636Z,6.40
2019-05-12T03:25:11.318Z,6.50
2019-05-12T03:26:07.282Z,6.50
2019-05-12T03:27:17.215Z,6.50
2019-05-12T03:28:19.108Z,6.50
2019-05-12T03:29:25.119Z,6.40
2019-05-12T03:30:30.544Z,6.40
2019-05-12T03:31:39.650Z,6.40
2019-05-12T03:32:47.315Z,6.40
2019-05-12T03:33:52.519Z,6.40
2019-05-12T03:34:58.013Z,6.30
2019-05-12T03:36:07.982Z,6.30
2019-05-12T03:37:09.023Z,6.30
2019-05-12T03:38:15.041Z,6.30
2019-05-12T03:39:20.561Z,6.30
2019-05-12T03:40:25.433Z,6.30
2019-05-12T03:41:30.512Z,6.40
2019-05-12T03:42:35.581Z,6.40
2019-05-12T03:43:40.797Z,6.40
2019-05-12T03:44:45.692Z,6.40
2019-05-12T03:45:55.859Z,6.40
2019-05-12T03:46:59.728Z,6.40
2019-05-12T03:48:05.118Z,6.50
2019-05-12T03:49:09.930Z,6.50
2019-05-12T03:50:15.176Z,6.50
2019-05-12T03:51:19.977Z,6.50
2019-05-12T03:52:25.165Z,6.60
2019-05-12T03:53:30.277Z,6.60
2019-05-12T03:54:35.429Z,6.60
2019-05-12T03:55:45.541Z,6.60
2019-05-12T03:56:48.573Z,6.60
2019-05-12T03:57:55.121Z,6.70
2019-05-12T03:59:04.784Z,6.60
2019-05-12T04:00:09.026Z,6.70
2019-05-12T04:01:14.987Z,6.70
2019-05-12T04:02:20.230Z,6.70
2019-05-12T04:03:25.437Z,6.70
2019-05-12T04:04:30.205Z,6.70
2019-05-12T04:05:35.773Z,6.80
2019-05-12T04:06:40.578Z,6.80
2019-05-12T04:07:45.806Z,6.80
2019-05-12T04:08:50.690Z,6.80
2019-05-12T04:09:55.849Z,6.80
2019-05-12T04:11:00.693Z,6.90
2019-05-12T04:12:05.864Z,6.90
2019-05-12T04:13:10.657Z,7.00
2019-05-12T04:14:15.814Z,7.00
2019-05-12T04:15:20.815Z,7.00
2019-05-12T04:16:26.336Z,7.00
2019-05-12T04:17:31.116Z,7.10
2019-05-12T04:18:36.363Z,7.10
2019-05-12T04:19:41.192Z,7.20
2019-05-12T04:20:46.477Z,7.30
2019-05-12T04:21:54.569Z,7.30
2019-05-12T04:22:58.068Z,7.30
2019-05-12T04:24:05.420Z,7.30
2019-05-12T04:25:09.882Z,7.40
2019-05-12T04:26:16.920Z,7.50
2019-05-12T04:27:24.865Z,7.50
2019-05-12T04:28:28.352Z,7.50
2019-05-12T04:29:34.895Z,7.50
2019-05-12T04:30:40.220Z,7.50
2019-05-12T04:31:45.544Z,7.50
2019-05-12T04:32:50.508Z,7.50
2019-05-12T04:33:55.849Z,7.60
2019-05-12T04:35:04.533Z,7.60
2019-05-12T04:36:07.796Z,7.70
2019-05-12T04:37:14.873Z,7.70
2019-05-12T04:38:19.782Z,7.70
2019-05-12T04:39:25.365Z,7.70
2019-05-12T04:40:30.674Z,7.60
2019-05-12T04:41:35.961Z,7.60
2019-05-12T04:42:44.881Z,7.70
2019-05-12T04:43:48.134Z,7.70
2019-05-12T04:44:55.278Z,7.70
2019-05-12T04:45:59.937Z,7.80
2019-05-12T04:47:05.669Z,7.80
2019-05-12T04:48:10.823Z,7.90
2019-05-12T04:49:16.085Z,7.90
2019-05-12T04:50:24.259Z,8.00
2019-05-12T04:51:28.008Z,7.90
2019-05-12T04:52:35.179Z,7.90
2019-05-12T04:53:39.830Z,7.90
2019-05-12T04:54:44.890Z,8.00
2019-05-12T04:56:05.925Z,7.90
2019-05-12T04:56:56.610Z,7.90
2019-05-12T04:58:04.389Z,8.00
2019-05-12T04:59:08.452Z,8.00
2019-05-12T05:00:15.921Z,8.00
2019-05-12T05:01:20.534Z,8.00
2019-05-12T05:02:25.681Z,8.10
2019-05-12T05:03:30.708Z,8.10
2019-05-12T05:04:36.029Z,8.20
2019-05-12T05:05:43.771Z,8.20
2019-05-12T05:06:47.891Z,8.20
2019-05-12T05:07:54.825Z,8.20
2019-05-12T05:08:59.756Z,8.20
2019-05-12T05:10:04.860Z,8.20
2019-05-12T05:11:10.133Z,8.20
2019-05-12T05:12:15.232Z,8.20
2019-05-12T05:13:20.539Z,8.20
2019-05-12T05:14:25.722Z,8.30
2019-05-12T05:15:34.330Z,8.30
2019-05-12T05:16:37.880Z,8.30
2019-05-12T05:17:44.082Z,8.30
2019-05-12T05:18:49.337Z,8.30
2019-05-12T05:19:54.506Z,8.30
2019-05-12T05:20:59.589Z,8.30
2019-05-12T05:22:04.938Z,8.30
2019-05-12T05:23:10.097Z,8.40
2019-05-12T05:24:15.283Z,8.40
2019-05-12T05:25:20.343Z,8.40
2019-05-12T05:26:28.302Z,8.40
2019-05-12T05:27:34.050Z,8.30
2019-05-12T05:28:39.148Z,8.30
2019-05-12T05:29:44.175Z,8.30
2019-05-12T05:30:49.310Z,8.30
2019-05-12T05:31:54.524Z,8.30
2019-05-12T05:32:59.911Z,8.30
2019-05-12T05:34:05.180Z,8.40
2019-05-12T05:35:14.156Z,8.40
2019-05-12T05:36:19.966Z,8.50
2019-05-12T05:37:25.464Z,8.50
2019-05-12T05:38:30.463Z,8.60
2019-05-12T05:39:47.901Z,8.60
2019-05-12T05:40:43.503Z,8.60
2019-05-12T05:41:51.155Z,8.70
2019-05-12T05:42:56.063Z,8.80
2019-05-12T05:44:03.113Z,8.80
2019-05-12T05:45:09.798Z,8.80
2019-05-12T05:46:16.046Z,8.90
2019-05-12T05:47:25.632Z,8.90
2019-05-12T05:48:27.897Z,8.90
2019-05-12T05:49:34.213Z,8.90
2019-05-12T05:50:39.688Z,8.80
2019-05-12T05:51:48.365Z,8.80
2019-05-12T05:52:51.618Z,8.90
2019-05-12T05:53:56.684Z,8.90
2019-05-12T05:55:05.929Z,8.90
2019-05-12T05:56:08.599Z,9.00
2019-05-12T05:57:14.313Z,9.10
2019-05-12T05:58:19.535Z,9.20
2019-05-12T05:59:31.304Z,9.30
2019-05-12T06:00:34.083Z,9.40
2019-05-12T06:01:40.200Z,9.40
2019-05-12T06:02:45.434Z,9.40
2019-05-12T06:03:50.779Z,9.50
2019-05-12T06:04:56.387Z,9.50
2019-05-12T06:06:10.435Z,9.50
2019-05-12T06:07:08.995Z,9.60
2019-05-12T06:08:16.189Z,9.70
2019-05-12T06:09:23.448Z,9.70
2019-05-12T06:10:35.219Z,9.70
2019-05-12T06:11:35.085Z,9.70
2019-05-12T06:12:45.556Z,9.70
2019-05-12T06:13:47.181Z,9.80
2019-05-12T06:14:57.894Z,9.80
2019-05-12T06:15:59.296Z,9.90
2019-05-12T06:17:04.578Z,9.90
2019-05-12T06:18:09.898Z,10.00
2019-05-12T06:19:15.096Z,10.00
2019-05-12T06:20:20.257Z,10.20
2019-05-12T06:21:29.110Z,10.20
2019-05-12T06:22:34.329Z,10.20
2019-05-12T06:23:39.369Z,10.30
2019-05-12T06:24:44.309Z,10.30
2019-05-12T06:25:51.591Z,10.40
2019-05-12T06:27:00.680Z,10.40
2019-05-12T06:28:06.391Z,10.40
2019-05-12T06:29:11.375Z,10.30
2019-05-12T06:30:17.874Z,10.30
2019-05-12T06:31:25.261Z,10.40
2019-05-12T06:32:29.946Z,10.40
2019-05-12T06:33:36.313Z,10.40
2019-05-12T06:34:43.542Z,10.40
2019-05-12T06:35:48.520Z,10.50
2019-05-12T06:36:57.034Z,10.50
2019-05-12T06:38:01.813Z,10.50
2019-05-12T06:39:10.555Z,10.50
2019-05-12T06:40:15.618Z,10.60
2019-05-12T06:41:23.641Z,10.60
2019-05-12T06:42:27.685Z,10.60
2019-05-12T06:43:36.173Z,10.60
2019-05-12T06:44:39.645Z,10.60
2019-05-12T06:45:45.664Z,10.60
2019-05-12T06:46:53.463Z,10.70
2019-05-12T06:47:57.868Z,10.80
2019-05-12T06:49:10.136Z,10.90
2019-05-12T06:50:09.694Z,11.00
2019-05-12T06:51:22.148Z,11.00
2019-05-12T06:52:23.515Z,11.00
2019-05-12T06:53:30.944Z,11.00
2019-05-12T06:54:34.956Z,11.00
2019-05-12T06:55:40.033Z,11.00
2019-05-12T06:56:49.728Z,11.00
2019-05-12T06:57:53.919Z,11.10
2019-05-12T06:59:01.022Z,11.10
2019-05-12T07:00:06.174Z,11.10
2019-05-12T07:01:18.409Z,11.10
2019-05-12T07:02:18.075Z,11.10
2019-05-12T07:03:26.151Z,11.20
2019-05-12T07:04:30.001Z,11.20
2019-05-12T07:05:38.454Z,11.20
2019-05-12T07:06:44.103Z,11.20
2019-05-12T07:07:49.877Z,11.20
2019-05-12T07:09:03.530Z,11.20
2019-05-12T07:10:11.768Z,11.30
2019-05-12T07:11:09.323Z,11.30
2019-05-12T07:12:14.771Z,11.30
2019-05-12T07:13:22.998Z,11.30
2019-05-12T07:14:27.389Z,11.20
2019-05-12T07:15:35.588Z,11.20
2019-05-12T07:16:39.966Z,11.20
2019-05-12T07:18:07.175Z,11.20
2019-05-12T07:19:17.410Z,11.30
2019-05-12T07:20:19.726Z,11.40
2019-05-12T07:21:27.313Z,11.40
2019-05-12T07:22:43.735Z,11.50
2019-05-12T07:23:39.171Z,11.40
2019-05-12T07:24:50.235Z,11.40
2019-05-12T07:25:51.469Z,11.40
2019-05-12T07:27:04.015Z,11.40
2019-05-12T07:28:08.010Z,11.40
2019-05-12T07:29:13.298Z,11.30
2019-05-12T07:30:25.281Z,11.30
2019-05-12T07:31:30.692Z,11.30
2019-05-12T07:32:36.749Z,11.20
2019-05-12T07:33:43.365Z,11.20
2019-05-12T07:34:49.096Z,11.30
2019-05-12T07:36:01.209Z,11.40
2019-05-12T07:37:04.415Z,11.50
2019-05-12T07:38:12.016Z,11.50
2019-05-12T07:39:20.068Z,11.60
2019-05-12T07:40:30.117Z,11.60
2019-05-12T07:41:35.075Z,11.60
2019-05-12T07:42:40.426Z,11.70
2019-05-12T07:43:50.493Z,11.80
2019-05-12T07:44:57.996Z,12.00
2019-05-12T07:46:07.045Z,12.20
2019-05-12T07:47:13.755Z,12.20
2019-05-12T07:48:19.214Z,12.30
2019-05-12T07:49:34.228Z,12.30
2019-05-12T07:50:35.049Z,12.40
2019-05-12T07:51:40.761Z,12.30
2019-05-12T07:52:46.610Z,12.20
2019-05-12T07:53:55.210Z,12.20
2019-05-12T07:54:59.264Z,12.20
2019-05-12T07:56:04.678Z,12.30
2019-05-12T07:57:12.239Z,12.40
2019-05-12T07:58:19.220Z,12.60
2019-05-12T07:59:28.259Z,12.60
2019-05-12T08:00:30.650Z,12.60
2019-05-12T08:01:48.161Z,12.60
2019-05-12T08:02:44.396Z,12.70
2019-05-12T08:03:50.978Z,12.80
2019-05-12T08:04:56.586Z,12.90
2019-05-12T08:06:04.475Z,12.90
2019-05-12T08:07:09.139Z,12.80
2019-05-12T08:08:15.020Z,12.70
2019-05-12T08:09:24.031Z,12.60
2019-05-12T08:10:27.872Z,12.60
2019-05-12T08:11:36.719Z,12.60
2019-05-12T08:12:40.233Z,12.70
2019-05-12T08:13:45.490Z,12.60
2019-05-12T08:14:54.061Z,12.70
2019-05-12T08:15:59.225Z,12.50
2019-05-12T08:17:11.226Z,12.50
2019-05-12T08:18:13.862Z,12.60
2019-05-12T08:19:24.294Z,12.70
2019-05-12T08:20:26.415Z,12.60
2019-05-12T08:21:43.617Z,12.70
2019-05-12T08:22:46.476Z,12.70
2019-05-12T08:23:54.698Z,12.60
2019-05-12T08:25:05.694Z,12.60
2019-05-12T08:26:13.558Z,12.60
2019-05-12T08:27:18.534Z,12.60
2019-05-12T08:28:34.881Z,12.70
2019-05-12T08:29:30.938Z,12.80
2019-05-12T08:30:47.318Z,12.80
2019-05-12T08:31:45.804Z,12.80
2019-05-12T08:32:56.307Z,12.80
2019-05-12T08:33:57.680Z,12.80
2019-05-12T08:35:05.092Z,12.80
2019-05-12T08:36:11.998Z,12.70
2019-05-12T08:37:17.604Z,12.70
2019-05-12T08:38:24.897Z,12.70
2019-05-12T08:39:29.913Z,12.80
2019-05-12T08:40:39.785Z,12.80
2019-05-12T08:41:44.260Z,12.90
2019-05-12T08:42:48.734Z,12.90
2019-05-12T08:43:58.212Z,12.90
2019-05-12T08:45:03.878Z,12.80
2019-05-12T08:46:12.187Z,12.60
2019-05-12T08:47:15.338Z,12.60
2019-05-12T08:48:22.332Z,12.60
2019-05-12T08:49:34.014Z,12.50
2019-05-12T08:50:36.150Z,12.40
2019-05-12T08:51:44.133Z,12.40
2019-05-12T08:52:48.933Z,12.30
2019-05-12T08:54:02.625Z,12.30
2019-05-12T08:55:04.103Z,12.30
2019-05-12T08:56:13.317Z,12.30
2019-05-12T08:57:16.408Z,12.30
2019-05-12T08:58:31.442Z,12.30
2019-05-12T08:59:28.608Z,12.30
2019-05-12T09:00:39.466Z,12.30
2019-05-12T09:01:45.242Z,12.40
2019-05-12T09:02:50.780Z,12.40
2019-05-12T09:04:00.242Z,12.20
2019-05-12T09:05:04.645Z,12.30
2019-05-12T09:06:15.433Z,12.20
2019-05-12T09:07:18.638Z,12.20
2019-05-12T09:08:24.948Z,12.20
2019-05-12T09:09:30.442Z,12.30
2019-05-12T09:10:36.270Z,12.20
2019-05-12T09:11:43.887Z,12.10
2019-05-12T09:12:49.267Z,12.00
2019-05-12T09:14:00.560Z,12.10
2019-05-12T09:15:04.316Z,12.00
2019-05-12T09:16:09.825Z,11.90
2019-05-12T09:17:17.557Z,11.90
2019-05-12T09:18:28.371Z,11.90
2019-05-12T09:19:29.931Z,11.90
2019-05-12T09:20:40.036Z,12.00
2019-05-12T09:21:44.219Z,12.00
2019-05-12T09:22:52.757Z,12.00
2019-05-12T09:23:57.218Z,12.20
2019-05-12T09:25:06.398Z,12.10
2019-05-12T09:26:10.184Z,12.20
2019-05-12T09:27:15.805Z,12.10
2019-05-12T09:28:21.199Z,12.00
2019-05-12T09:29:26.365Z,12.00
2019-05-12T09:30:33.717Z,11.90
2019-05-12T09:31:39.605Z,12.00
2019-05-12T09:32:49.921Z,12.10
2019-05-12T09:33:54.545Z,12.20
2019-05-12T09:34:59.485Z,12.20
2019-05-12T09:36:05.163Z,12.20
2019-05-12T09:37:10.743Z,12.40
2019-05-12T09:38:21.301Z,12.50
2019-05-12T09:39:23.985Z,12.60
2019-05-12T09:40:29.843Z,12.70
2019-05-12T09:41:42.316Z,12.80
2019-05-12T09:42:44.105Z,12.80
2019-05-12T09:43:50.529Z,12.70
2019-05-12T09:45:00.124Z,12.50
2019-05-12T09:46:04.166Z,12.30
2019-05-12T09:47:21.955Z,12.40
2019-05-12T09:48:17.253Z,12.60
2019-05-12T09:49:31.396Z,12.70
2019-05-12T09:50:30.413Z,12.80
2019-05-12T09:51:41.417Z,12.90
2019-05-12T09:52:44.172Z,12.90
2019-05-12T09:53:51.088Z,13.00
2019-05-12T09:54:56.242Z,13.10
2019-05-12T09:56:01.290Z,12.90
2019-05-12T09:57:06.628Z,12.70
2019-05-12T09:58:14.153Z,12.80
2019-05-12T09:59:22.920Z,12.70
2019-05-12T10:00:30.387Z,12.50
2019-05-12T10:01:35.321Z,12.50
2019-05-12T10:02:39.116Z,12.50
2019-05-12T10:03:44.354Z,12.50
2019-05-12T10:04:50.255Z,12.50
2019-05-12T10:05:56.195Z,12.50
2019-05-12T10:07:01.200Z,12.60
2019-05-12T10:08:06.583Z,12.80
2019-05-12T10:09:15.381Z,12.80
2019-05-12T10:10:18.763Z,13.00
2019-05-12T10:11:23.822Z,13.00
2019-05-12T10:12:29.892Z,12.80
2019-05-12T10:13:35.154Z,12.80
2019-05-12T10:14:40.744Z,12.70
2019-05-12T10:15:46.953Z,12.90
2019-05-12T10:16:52.221Z,13.00
2019-05-12T10:18:00.179Z,12.90
2019-05-12T10:19:04.279Z,12.90
2019-05-12T10:20:10.068Z,12.90
2019-05-12T10:21:17.415Z,12.80
2019-05-12T10:22:23.583Z,12.70
2019-05-12T10:23:29.012Z,12.60
2019-05-12T10:24:41.579Z,12.60
2019-05-12T10:25:41.005Z,12.60
2019-05-12T10:26:49.301Z,12.50
2019-05-12T10:27:53.236Z,12.40
2019-05-12T10:28:59.821Z,12.50
2019-05-12T10:30:12.123Z,12.60
2019-05-12T10:31:13.849Z,12.70
2019-05-12T10:32:19.440Z,12.70
2019-05-12T10:33:24.492Z,12.70
2019-05-12T10:34:38.093Z,12.60
2019-05-12T10:35:36.624Z,12.60
2019-05-12T10:36:44.883Z,12.50
2019-05-12T10:37:48.835Z,12.50
2019-05-12T10:38:54.071Z,12.50
2019-05-12T10:39:59.009Z,12.40
2019-05-12T10:41:04.410Z,12.40
2019-05-12T10:42:09.645Z,12.50
2019-05-12T10:43:14.937Z,12.50
2019-05-12T10:44:19.949Z,12.50
2019-05-12T10:45:27.551Z,12.60
2019-05-12T10:46:32.494Z,12.70
2019-05-12T10:47:37.681Z,12.70
2019-05-12T10:48:44.339Z,12.60
2019-05-12T10:49:49.675Z,12.60
2019-05-12T10:50:54.654Z,12.60
2019-05-12T10:51:59.853Z,12.60
2019-05-12T10:53:09.961Z,12.40
2019-05-12T10:54:15.037Z,12.30
2019-05-12T10:55:18.869Z,12.30
2019-05-12T10:56:24.232Z,12.20
2019-05-12T10:57:29.393Z,12.20
2019-05-12T10:58:34.616Z,12.30
2019-05-12T10:59:45.143Z,12.30
2019-05-12T11:00:46.646Z,12.20
2019-05-12T11:01:53.966Z,12.30
2019-05-12T11:03:01.486Z,12.30
2019-05-12T11:04:05.597Z,12.30
2019-05-12T11:05:12.423Z,12.20
2019-05-12T11:06:17.529Z,12.20
2019-05-12T11:07:22.898Z,12.20
2019-05-12T11:08:29.433Z,12.30
2019-05-12T11:09:34.764Z,12.40
2019-05-12T11:10:39.841Z,12.40
2019-05-12T11:11:46.899Z,12.40
2019-05-12T11:12:51.991Z,12.50
2019-05-12T11:13:57.431Z,12.50
2019-05-12T11:15:06.912Z,12.60
2019-05-12T11:16:09.650Z,12.50
2019-05-12T11:17:15.209Z,12.50
2019-05-12T11:18:26.004Z,12.50
2019-05-12T11:19:28.637Z,12.50
2019-05-12T11:20:34.477Z,12.60
2019-05-12T11:21:39.870Z,12.70
2019-05-12T11:22:45.161Z,12.80
2019-05-12T11:23:50.170Z,12.80
2019-05-12T11:24:55.950Z,12.90
2019-05-12T11:26:01.066Z,13.00
2019-05-12T11:27:06.449Z,13.00
2019-05-12T11:28:13.870Z,12.90
2019-05-12T11:29:18.518Z,13.00
2019-05-12T11:30:23.889Z,13.00
2019-05-12T11:31:29.138Z,12.90
2019-05-12T11:32:37.809Z,13.00
2019-05-12T11:33:43.463Z,13.00
2019-05-12T11:34:47.849Z,13.00
2019-05-12T11:35:54.216Z,13.10
2019-05-12T11:36:59.598Z,13.00
2019-05-12T11:38:04.960Z,12.90
2019-05-12T11:39:10.247Z,12.70
2019-05-12T11:40:15.708Z,12.60
2019-05-12T11:41:21.369Z,12.70
2019-05-12T11:42:26.711Z,12.70
2019-05-12T11:43:33.777Z,12.60
2019-05-12T11:44:38.921Z,12.60
2019-05-12T11:45:44.307Z,12.60
2019-05-12T11:46:49.824Z,12.60
2019-05-12T11:47:56.933Z,12.70
2019-05-12T11:49:04.271Z,12.80
2019-05-12T11:50:09.991Z,12.80
2019-05-12T11:51:15.650Z,12.90
2019-05-12T11:52:20.797Z,13.00
2019-05-12T11:53:31.011Z,13.10
2019-05-12T11:54:33.517Z,13.30
2019-05-12T11:55:38.903Z,13.40
2019-05-12T11:56:46.624Z,13.30
2019-05-12T11:57:50.868Z,13.40
2019-05-12T11:58:55.908Z,13.40
2019-05-12T12:00:02.341Z,13.30
2019-05-12T12:01:09.625Z,13.30
2019-05-12T12:02:14.819Z,13.40
2019-05-12T12:03:19.776Z,13.20
2019-05-12T12:04:27.197Z,13.00
2019-05-12T12:05:33.875Z,12.80
2019-05-12T12:06:39.355Z,12.60
2019-05-12T12:07:50.570Z,12.40
2019-05-12T12:08:53.534Z,12.30
2019-05-12T12:09:59.577Z,12.20
2019-05-12T12:11:05.006Z,12.10
2019-05-12T12:12:09.862Z,12.30
2019-05-12T12:13:19.379Z,12.10
2019-05-12T12:15:07.936Z,12.10
2019-05-12T12:16:14.136Z,12.10
2019-05-12T12:17:22.887Z,12.10
2019-05-12T12:18:26.154Z,12.00
2019-05-12T12:19:37.721Z,12.00
2019-05-12T12:20:38.039Z,12.00
2019-05-12T12:21:47.993Z,12.10
2019-05-12T12:22:50.045Z,12.20
2019-05-12T12:23:54.968Z,12.30
2019-05-12T12:25:04.629Z,12.40
2019-05-12T12:26:06.954Z,12.50
2019-05-12T12:27:14.215Z,12.50
2019-05-12T12:28:21.115Z,12.60
2019-05-12T12:29:26.692Z,12.50
2019-05-12T12:30:33.690Z,12.40
2019-05-12T12:31:49.519Z,12.40
2019-05-12T12:32:57.190Z,12.50
2019-05-12T12:34:03.186Z,12.50
2019-05-12T12:35:11.074Z,12.50
2019-05-12T12:36:15.721Z,12.60
2019-05-12T12:37:24.057Z,12.70
2019-05-12T12:38:27.836Z,12.70
2019-05-12T12:39:33.372Z,12.60
2019-05-12T12:40:39.051Z,12.60
2019-05-12T12:41:55.307Z,12.60
2019-05-12T12:42:53.690Z,12.60
2019-05-12T12:43:57.980Z,12.70
2019-05-12T12:45:15.192Z,12.90
2019-05-12T12:46:28.280Z,12.90
2019-05-12T12:47:35.922Z,13.00
2019-05-12T12:48:40.279Z,13.10
2019-05-12T12:49:49.240Z,13.20
2019-05-12T12:50:53.439Z,13.30
2019-05-12T12:52:00.185Z,13.40
2019-05-12T12:53:05.146Z,13.30
2019-05-12T12:54:10.709Z,13.30
2019-05-12T12:55:15.582Z,13.30
2019-05-12T12:56:27.734Z,13.20
2019-05-12T12:57:27.699Z,13.20
2019-05-12T12:58:34.581Z,13.20
2019-05-12T12:59:42.918Z,13.10
2019-05-12T13:00:49.649Z,13.10
2019-05-12T13:01:53.358Z,13.20
2019-05-12T13:02:58.780Z,13.40
2019-05-12T13:04:06.395Z,13.50
2019-05-12T13:05:10.844Z,13.60
2019-05-12T13:06:17.412Z,13.70
2019-05-12T13:07:24.158Z,13.60
2019-05-12T13:08:29.245Z,13.70
2019-05-12T13:09:34.768Z,13.60
2019-05-12T13:10:40.660Z,13.50
2019-05-12T13:11:46.765Z,13.50
2019-05-12T13:12:56.601Z,13.50
2019-05-12T13:13:58.638Z,13.50
2019-05-12T13:15:03.933Z,13.60
2019-05-12T13:16:09.591Z,13.50
2019-05-12T13:17:14.476Z,13.40
2019-05-12T13:18:25.809Z,13.30
2019-05-12T13:19:26.461Z,13.40
2019-05-12T13:20:34.288Z,13.40
2019-05-12T13:21:39.144Z,13.10
2019-05-12T13:22:44.678Z,13.20
2019-05-12T13:23:51.047Z,13.30
2019-05-12T13:24:58.292Z,13.30
2019-05-12T13:26:04.337Z,13.40
2019-05-12T13:27:09.946Z,13.40
2019-05-12T13:28:19.010Z,13.40
2019-05-12T13:29:28.283Z,13.30
2019-05-12T13:30:32.317Z,13.30
2019-05-12T13:31:35.767Z,13.10
2019-05-12T13:32:40.674Z,13.10
2019-05-12T13:33:49.360Z,13.00
2019-05-12T13:34:52.568Z,12.90
2019-05-12T13:35:58.135Z,12.80
2019-05-12T13:37:03.446Z,12.80
2019-05-12T13:38:08.933Z,12.70
2019-05-12T13:39:16.423Z,12.70
2019-05-12T13:40:23.257Z,12.60
2019-05-12T13:41:27.558Z,12.60
2019-05-12T13:42:35.919Z,12.50
2019-05-12T13:43:39.681Z,12.50
2019-05-12T13:44:45.245Z,12.50
2019-05-12T13:45:50.114Z,12.40
2019-05-12T13:46:58.797Z,12.40
2019-05-12T13:48:03.931Z,12.20
2019-05-12T13:49:09.249Z,12.20
2019-05-12T13:50:21.670Z,12.30
2019-05-12T13:51:24.043Z,12.20
2019-05-12T13:52:30.321Z,12.10
2019-05-12T13:53:40.317Z,12.10
2019-05-12T13:54:43.713Z,12.10
2019-05-12T13:55:49.719Z,12.10
2019-05-12T13:56:54.741Z,12.10
2019-05-12T13:58:00.266Z,12.20
2019-05-12T13:59:05.453Z,12.40
2019-05-12T14:00:11.317Z,12.50
2019-05-12T14:01:20.482Z,12.60
2019-05-12T14:02:23.957Z,12.70
2019-05-12T14:03:28.853Z,12.70
2019-05-12T14:04:34.271Z,12.70
2019-05-12T14:05:41.061Z,12.70
2019-05-12T14:06:46.338Z,12.80
2019-05-12T14:07:55.601Z,12.70
2019-05-12T14:08:59.771Z,12.70
2019-05-12T14:10:05.125Z,12.70
2019-05-12T14:11:10.545Z,12.70
2019-05-12T14:12:15.658Z,12.60
2019-05-12T14:13:21.222Z,12.70
2019-05-12T14:14:26.134Z,12.70
2019-05-12T14:15:33.889Z,12.80
2019-05-12T14:16:38.133Z,12.70
2019-05-12T14:17:43.800Z,12.70
2019-05-12T14:18:51.200Z,12.60
2019-05-12T14:19:57.052Z,12.60
2019-05-12T14:21:04.047Z,12.50
2019-05-12T14:22:12.893Z,12.70
2019-05-12T14:23:15.711Z,12.70
2019-05-12T14:24:23.436Z,12.80